sensor_id;sensor_type;location;lat;lon;timestamp;temperature;humidity
8593;DHT22;4334;49.982;8.398;2024-02-16T00:01:59;11.10;99.90
8593;DHT22;4334;49.982;8.398;2024-02-16T00:04:26;11.10;99.90
8593;DHT22;4334;49.982;8.398;2024-02-16T00:06:53;11.20;99.90
8593;DHT22;4334;49.982;8.398;2024-02-16T00:09:20;11.00;99.90
8593;DHT22;4334;49.982;8.398;2024-02-16T00:11:47;10.90;99.90
8593;DHT22;4334;49.982;8.398;2024-02-16T00:14:16;10.90;99.90
8593;DHT22;4334;49.982;8.398;2024-02-16T00:16:42;10.90;99.90
8593;DHT22;4334;49.982;8.398;2024-02-16T00:19:09;10.90;99.90
8593;DHT22;4334;49.982;8.398;2024-02-16T00:21:36;10.90;99.90
8593;DHT22;4334;49.982;8.398;2024-02-16T00:24:03;10.90;99.90
8593;DHT22;4334;49.982;8.398;2024-02-16T00:26:31;14.20;99.90
8593;DHT22;4334;49.982;8.398;2024-02-16T00:28:58;10.80;99.90
8593;DHT22;4334;49.982;8.398;2024-02-16T00:31:24;10.90;99.90
8593;DHT22;4334;49.982;8.398;2024-02-16T00:33:51;10.80;99.90
8593;DHT22;4334;49.982;8.398;2024-02-16T00:36:18;10.80;99.90
8593;DHT22;4334;49.982;8.398;2024-02-16T00:38:44;10.80;99.90
8593;DHT22;4334;49.982;8.398;2024-02-16T00:41:18;10.80;99.90
8593;DHT22;4334;49.982;8.398;2024-02-16T00:43:46;10.70;99.90
8593;DHT22;4334;49.982;8.398;2024-02-16T00:46:13;10.60;99.90
8593;DHT22;4334;49.982;8.398;2024-02-16T00:48:39;10.60;99.90
8593;DHT22;4334;49.982;8.398;2024-02-16T00:51:06;10.50;99.90
8593;DHT22;4334;49.982;8.398;2024-02-16T00:53:33;10.40;99.90
8593;DHT22;4334;49.982;8.398;2024-02-16T00:55:59;10.30;99.90
8593;DHT22;4334;49.982;8.398;2024-02-16T00:58:26;10.30;99.90
8593;DHT22;4334;49.982;8.398;2024-02-16T01:00:54;10.40;99.90
8593;DHT22;4334;49.982;8.398;2024-02-16T01:03:21;10.30;99.90
8593;DHT22;4334;49.982;8.398;2024-02-16T01:05:48;10.20;99.90
8593;DHT22;4334;49.982;8.398;2024-02-16T01:08:14;10.20;99.90
8593;DHT22;4334;49.982;8.398;2024-02-16T01:10:41;10.20;99.90
8593;DHT22;4334;49.982;8.398;2024-02-16T01:13:08;10.20;99.90
8593;DHT22;4334;49.982;8.398;2024-02-16T01:15:35;10.20;99.90
8593;DHT22;4334;49.982;8.398;2024-02-16T01:18:04;10.20;99.90
8593;DHT22;4334;49.982;8.398;2024-02-16T01:20:31;10.20;99.90
8593;DHT22;4334;49.982;8.398;2024-02-16T01:22:58;10.30;99.90
8593;DHT22;4334;49.982;8.398;2024-02-16T01:25:24;10.30;99.90
8593;DHT22;4334;49.982;8.398;2024-02-16T01:27:51;10.30;99.90
8593;DHT22;4334;49.982;8.398;2024-02-16T01:30:18;10.20;99.90
8593;DHT22;4334;49.982;8.398;2024-02-16T01:32:45;10.20;99.90
8593;DHT22;4334;49.982;8.398;2024-02-16T01:35:13;13.90;99.90
8593;DHT22;4334;49.982;8.398;2024-02-16T01:37:41;10.10;99.90
8593;DHT22;4334;49.982;8.398;2024-02-16T01:40:09;10.10;99.90
8593;DHT22;4334;49.982;8.398;2024-02-16T01:42:40;10.00;99.90
8593;DHT22;4334;49.982;8.398;2024-02-16T01:45:07;10.00;99.90
8593;DHT22;4334;49.982;8.398;2024-02-16T01:47:35;9.90;99.90
8593;DHT22;4334;49.982;8.398;2024-02-16T01:50:02;10.00;99.90
8593;DHT22;4334;49.982;8.398;2024-02-16T01:52:31;10.00;99.90
8593;DHT22;4334;49.982;8.398;2024-02-16T01:54:59;10.00;99.90
8593;DHT22;4334;49.982;8.398;2024-02-16T01:57:28;9.90;99.90
8593;DHT22;4334;49.982;8.398;2024-02-16T01:59:55;9.80;99.90
8593;DHT22;4334;49.982;8.398;2024-02-16T02:02:21;9.80;99.90
8593;DHT22;4334;49.982;8.398;2024-02-16T02:04:48;9.80;99.90
8593;DHT22;4334;49.982;8.398;2024-02-16T02:07:16;9.80;99.90
8593;DHT22;4334;49.982;8.398;2024-02-16T02:09:44;9.80;99.90
8593;DHT22;4334;49.982;8.398;2024-02-16T02:12:11;9.70;99.90
8593;DHT22;4334;49.982;8.398;2024-02-16T02:14:37;9.60;99.90
8593;DHT22;4334;49.982;8.398;2024-02-16T02:17:04;9.50;99.90
8593;DHT22;4334;49.982;8.398;2024-02-16T02:19:31;9.40;99.90
8593;DHT22;4334;49.982;8.398;2024-02-16T02:21:58;9.40;99.90
8593;DHT22;4334;49.982;8.398;2024-02-16T02:24:27;9.30;99.90
8593;DHT22;4334;49.982;8.398;2024-02-16T02:26:54;9.40;99.90
8593;DHT22;4334;49.982;8.398;2024-02-16T02:29:22;9.30;99.90
8593;DHT22;4334;49.982;8.398;2024-02-16T02:31:49;9.30;99.90
8593;DHT22;4334;49.982;8.398;2024-02-16T02:34:16;9.30;99.90
8593;DHT22;4334;49.982;8.398;2024-02-16T02:36:43;9.20;99.90
8593;DHT22;4334;49.982;8.398;2024-02-16T02:39:09;9.20;99.90
8593;DHT22;4334;49.982;8.398;2024-02-16T02:41:38;9.30;99.90
8593;DHT22;4334;49.982;8.398;2024-02-16T02:44:04;9.30;99.90
8593;DHT22;4334;49.982;8.398;2024-02-16T02:46:31;9.30;99.90
8593;DHT22;4334;49.982;8.398;2024-02-16T02:48:58;9.30;99.90
8593;DHT22;4334;49.982;8.398;2024-02-16T02:51:24;9.30;99.90
8593;DHT22;4334;49.982;8.398;2024-02-16T02:53:52;9.30;99.90
8593;DHT22;4334;49.982;8.398;2024-02-16T02:56:19;9.40;99.90
8593;DHT22;4334;49.982;8.398;2024-02-16T02:58:47;9.50;99.90
8593;DHT22;4334;49.982;8.398;2024-02-16T03:01:14;9.60;99.90
8593;DHT22;4334;49.982;8.398;2024-02-16T03:03:41;9.70;99.90
8593;DHT22;4334;49.982;8.398;2024-02-16T03:06:08;9.80;99.90
8593;DHT22;4334;49.982;8.398;2024-02-16T03:08:35;9.80;99.90
8593;DHT22;4334;49.982;8.398;2024-02-16T03:11:02;9.90;99.90
8593;DHT22;4334;49.982;8.398;2024-02-16T03:13:29;9.40;99.90
8593;DHT22;4334;49.982;8.398;2024-02-16T03:16:00;10.00;99.90
8593;DHT22;4334;49.982;8.398;2024-02-16T03:18:29;10.10;99.90
8593;DHT22;4334;49.982;8.398;2024-02-16T03:20:56;10.20;99.90
8593;DHT22;4334;49.982;8.398;2024-02-16T03:23:24;10.20;99.90
8593;DHT22;4334;49.982;8.398;2024-02-16T03:25:50;10.20;99.90
8593;DHT22;4334;49.982;8.398;2024-02-16T03:28:17;10.20;99.90
8593;DHT22;4334;49.982;8.398;2024-02-16T03:30:44;10.30;99.90
8593;DHT22;4334;49.982;8.398;2024-02-16T03:33:12;10.30;99.90
8593;DHT22;4334;49.982;8.398;2024-02-16T03:35:39;10.40;99.90
8593;DHT22;4334;49.982;8.398;2024-02-16T03:38:07;10.40;99.90
8593;DHT22;4334;49.982;8.398;2024-02-16T03:40:33;10.40;99.90
8593;DHT22;4334;49.982;8.398;2024-02-16T03:43:00;10.80;99.90
8593;DHT22;4334;49.982;8.398;2024-02-16T03:45:27;10.40;99.90
8593;DHT22;4334;49.982;8.398;2024-02-16T03:47:53;10.40;99.90
8593;DHT22;4334;49.982;8.398;2024-02-16T03:50:21;12.60;99.90
8593;DHT22;4334;49.982;8.398;2024-02-16T03:52:48;10.50;99.90
8593;DHT22;4334;49.982;8.398;2024-02-16T03:55:15;14.20;99.90
8593;DHT22;4334;49.982;8.398;2024-02-16T03:57:42;10.40;99.90
8593;DHT22;4334;49.982;8.398;2024-02-16T04:00:09;10.40;99.90
8593;DHT22;4334;49.982;8.398;2024-02-16T04:02:37;10.30;99.90
8593;DHT22;4334;49.982;8.398;2024-02-16T04:05:04;10.20;99.90
8593;DHT22;4334;49.982;8.398;2024-02-16T04:07:34;10.20;99.90
8593;DHT22;4334;49.982;8.398;2024-02-16T04:10:01;10.20;99.90
8593;DHT22;4334;49.982;8.398;2024-02-16T04:12:28;10.20;99.90
8593;DHT22;4334;49.982;8.398;2024-02-16T04:14:54;10.10;99.90
8593;DHT22;4334;49.982;8.398;2024-02-16T04:17:21;10.10;99.90
8593;DHT22;4334;49.982;8.398;2024-02-16T04:19:48;10.10;99.90
8593;DHT22;4334;49.982;8.398;2024-02-16T04:22:14;10.10;99.90
8593;DHT22;4334;49.982;8.398;2024-02-16T04:24:42;10.10;99.90
8593;DHT22;4334;49.982;8.398;2024-02-16T04:27:09;10.20;99.90
8593;DHT22;4334;49.982;8.398;2024-02-16T04:29:35;10.20;99.90
8593;DHT22;4334;49.982;8.398;2024-02-16T04:32:03;10.20;99.90
8593;DHT22;4334;49.982;8.398;2024-02-16T04:34:29;10.30;99.90
8593;DHT22;4334;49.982;8.398;2024-02-16T04:36:56;10.30;99.90
8593;DHT22;4334;49.982;8.398;2024-02-16T04:39:23;10.30;99.90
8593;DHT22;4334;49.982;8.398;2024-02-16T04:41:51;10.40;99.90
8593;DHT22;4334;49.982;8.398;2024-02-16T04:44:18;10.40;99.90
8593;DHT22;4334;49.982;8.398;2024-02-16T04:46:45;10.40;99.90
8593;DHT22;4334;49.982;8.398;2024-02-16T04:49:12;10.30;99.90
8593;DHT22;4334;49.982;8.398;2024-02-16T04:51:39;10.20;99.90
8593;DHT22;4334;49.982;8.398;2024-02-16T04:54:05;10.20;99.90
8593;DHT22;4334;49.982;8.398;2024-02-16T04:56:32;10.20;99.90
8593;DHT22;4334;49.982;8.398;2024-02-16T04:59:00;10.20;99.90
8593;DHT22;4334;49.982;8.398;2024-02-16T05:01:27;10.20;99.90
8593;DHT22;4334;49.982;8.398;2024-02-16T05:03:55;10.20;99.90
8593;DHT22;4334;49.982;8.398;2024-02-16T05:06:22;10.20;99.90
8593;DHT22;4334;49.982;8.398;2024-02-16T05:08:48;10.20;99.90
8593;DHT22;4334;49.982;8.398;2024-02-16T05:11:15;13.30;99.90
8593;DHT22;4334;49.982;8.398;2024-02-16T05:13:42;10.10;99.90
8593;DHT22;4334;49.982;8.398;2024-02-16T05:16:11;10.00;99.90
8593;DHT22;4334;49.982;8.398;2024-02-16T05:18:38;9.70;99.90
8593;DHT22;4334;49.982;8.398;2024-02-16T05:21:06;10.00;99.90
8593;DHT22;4334;49.982;8.398;2024-02-16T05:23:32;10.00;99.90
8593;DHT22;4334;49.982;8.398;2024-02-16T05:25:59;9.90;99.90
8593;DHT22;4334;49.982;8.398;2024-02-16T05:28:26;9.90;99.90
8593;DHT22;4334;49.982;8.398;2024-02-16T05:30:52;9.90;99.90
8593;DHT22;4334;49.982;8.398;2024-02-16T05:33:21;9.90;99.90
8593;DHT22;4334;49.982;8.398;2024-02-16T05:35:48;9.90;99.90
8593;DHT22;4334;49.982;8.398;2024-02-16T05:38:20;9.90;99.90
8593;DHT22;4334;49.982;8.398;2024-02-16T05:40:57;9.90;99.90
8593;DHT22;4334;49.982;8.398;2024-02-16T05:43:24;10.00;99.90
8593;DHT22;4334;49.982;8.398;2024-02-16T05:45:50;10.00;99.90
8593;DHT22;4334;49.982;8.398;2024-02-16T05:48:17;10.00;99.90
8593;DHT22;4334;49.982;8.398;2024-02-16T05:50:46;9.90;99.90
8593;DHT22;4334;49.982;8.398;2024-02-16T05:53:13;9.90;99.90
8593;DHT22;4334;49.982;8.398;2024-02-16T05:55:39;9.90;99.90
8593;DHT22;4334;49.982;8.398;2024-02-16T05:58:06;9.90;99.90
8593;DHT22;4334;49.982;8.398;2024-02-16T06:00:33;9.90;99.90
8593;DHT22;4334;49.982;8.398;2024-02-16T06:03:00;9.90;99.90
8593;DHT22;4334;49.982;8.398;2024-02-16T06:05:28;9.90;99.90
8593;DHT22;4334;49.982;8.398;2024-02-16T06:07:56;9.90;99.90
8593;DHT22;4334;49.982;8.398;2024-02-16T06:10:24;9.90;99.90
8593;DHT22;4334;49.982;8.398;2024-02-16T06:12:51;9.80;99.90
8593;DHT22;4334;49.982;8.398;2024-02-16T06:15:18;9.80;99.90
8593;DHT22;4334;49.982;8.398;2024-02-16T06:17:44;9.70;99.90
8593;DHT22;4334;49.982;8.398;2024-02-16T06:20:11;9.70;99.90
8593;DHT22;4334;49.982;8.398;2024-02-16T06:22:39;9.60;99.90
8593;DHT22;4334;49.982;8.398;2024-02-16T06:25:07;9.60;99.90
8593;DHT22;4334;49.982;8.398;2024-02-16T06:27:34;9.50;99.90
8593;DHT22;4334;49.982;8.398;2024-02-16T06:30:01;9.60;99.90
8593;DHT22;4334;49.982;8.398;2024-02-16T06:32:29;9.40;99.90
8593;DHT22;4334;49.982;8.398;2024-02-16T06:34:56;9.50;99.90
8593;DHT22;4334;49.982;8.398;2024-02-16T06:37:23;9.60;99.90
8593;DHT22;4334;49.982;8.398;2024-02-16T06:39:50;12.00;99.90
8593;DHT22;4334;49.982;8.398;2024-02-16T06:42:18;9.80;99.90
8593;DHT22;4334;49.982;8.398;2024-02-16T06:44:45;13.50;99.90
8593;DHT22;4334;49.982;8.398;2024-02-16T06:47:12;9.90;99.90
8593;DHT22;4334;49.982;8.398;2024-02-16T06:49:38;10.00;99.90
8593;DHT22;4334;49.982;8.398;2024-02-16T06:52:05;9.90;99.90
8593;DHT22;4334;49.982;8.398;2024-02-16T06:54:33;10.00;99.90
8593;DHT22;4334;49.982;8.398;2024-02-16T06:56:59;10.10;99.90
8593;DHT22;4334;49.982;8.398;2024-02-16T06:59:28;10.20;99.90
8593;DHT22;4334;49.982;8.398;2024-02-16T07:01:54;10.20;99.90
8593;DHT22;4334;49.982;8.398;2024-02-16T07:04:21;10.30;99.90
8593;DHT22;4334;49.982;8.398;2024-02-16T07:06:48;10.40;99.90
8593;DHT22;4334;49.982;8.398;2024-02-16T07:09:14;10.50;99.90
8593;DHT22;4334;49.982;8.398;2024-02-16T07:11:41;10.50;99.90
8593;DHT22;4334;49.982;8.398;2024-02-16T07:14:08;10.60;99.90
8593;DHT22;4334;49.982;8.398;2024-02-16T07:16:36;10.60;99.90
8593;DHT22;4334;49.982;8.398;2024-02-16T07:19:02;10.70;99.90
8593;DHT22;4334;49.982;8.398;2024-02-16T07:21:30;10.80;99.90
8593;DHT22;4334;49.982;8.398;2024-02-16T07:23:57;10.90;99.90
8593;DHT22;4334;49.982;8.398;2024-02-16T07:26:24;10.90;99.90
8593;DHT22;4334;49.982;8.398;2024-02-16T07:28:50;11.00;99.90
8593;DHT22;4334;49.982;8.398;2024-02-16T07:31:17;11.10;99.90
8593;DHT22;4334;49.982;8.398;2024-02-16T07:33:45;11.20;99.90
8593;DHT22;4334;49.982;8.398;2024-02-16T07:36:12;11.20;99.90
8593;DHT22;4334;49.982;8.398;2024-02-16T07:38:39;11.80;99.90
8593;DHT22;4334;49.982;8.398;2024-02-16T07:41:06;11.40;99.90
8593;DHT22;4334;49.982;8.398;2024-02-16T07:43:32;11.40;99.90
8593;DHT22;4334;49.982;8.398;2024-02-16T07:45:59;11.60;99.90
8593;DHT22;4334;49.982;8.398;2024-02-16T07:48:26;11.70;99.90
8593;DHT22;4334;49.982;8.398;2024-02-16T07:50:55;11.90;99.90
8593;DHT22;4334;49.982;8.398;2024-02-16T07:53:23;11.90;99.90
8593;DHT22;4334;49.982;8.398;2024-02-16T07:55:50;12.00;99.90
8593;DHT22;4334;49.982;8.398;2024-02-16T07:58:16;12.00;99.90
8593;DHT22;4334;49.982;8.398;2024-02-16T08:00:43;12.10;99.90
8593;DHT22;4334;49.982;8.398;2024-02-16T08:03:10;12.10;99.90
8593;DHT22;4334;49.982;8.398;2024-02-16T08:05:37;12.10;99.90
8593;DHT22;4334;49.982;8.398;2024-02-16T08:08:05;12.10;99.90
8593;DHT22;4334;49.982;8.398;2024-02-16T08:10:32;12.10;99.90
8593;DHT22;4334;49.982;8.398;2024-02-16T08:12:58;12.30;99.90
8593;DHT22;4334;49.982;8.398;2024-02-16T08:15:25;12.10;99.90
8593;DHT22;4334;49.982;8.398;2024-02-16T08:17:52;12.00;99.90
8593;DHT22;4334;49.982;8.398;2024-02-16T08:20:19;12.10;99.90
8593;DHT22;4334;49.982;8.398;2024-02-16T08:22:47;12.00;99.90
8593;DHT22;4334;49.982;8.398;2024-02-16T08:25:15;11.90;99.90
8593;DHT22;4334;49.982;8.398;2024-02-16T08:27:42;11.80;99.90
8593;DHT22;4334;49.982;8.398;2024-02-16T08:30:09;11.60;99.90
8593;DHT22;4334;49.982;8.398;2024-02-16T08:32:37;11.50;99.90
8593;DHT22;4334;49.982;8.398;2024-02-16T08:35:04;11.50;99.90
8593;DHT22;4334;49.982;8.398;2024-02-16T08:37:31;11.40;99.90
8593;DHT22;4334;49.982;8.398;2024-02-16T08:39:59;11.50;99.90
8593;DHT22;4334;49.982;8.398;2024-02-16T08:42:27;11.60;99.90
8593;DHT22;4334;49.982;8.398;2024-02-16T08:44:53;11.50;99.90
8593;DHT22;4334;49.982;8.398;2024-02-16T08:47:20;11.60;99.90
8593;DHT22;4334;49.982;8.398;2024-02-16T08:49:47;11.70;99.90
8593;DHT22;4334;49.982;8.398;2024-02-16T08:52:14;11.70;99.90
8593;DHT22;4334;49.982;8.398;2024-02-16T08:54:42;11.80;99.90
8593;DHT22;4334;49.982;8.398;2024-02-16T08:57:09;11.90;99.90
8593;DHT22;4334;49.982;8.398;2024-02-16T08:59:37;12.00;99.90
8593;DHT22;4334;49.982;8.398;2024-02-16T09:02:04;12.20;99.90
8593;DHT22;4334;49.982;8.398;2024-02-16T09:04:31;12.20;99.90
8593;DHT22;4334;49.982;8.398;2024-02-16T09:06:59;12.40;99.90
8593;DHT22;4334;49.982;8.398;2024-02-16T09:09:25;12.50;99.90
8593;DHT22;4334;49.982;8.398;2024-02-16T09:11:53;12.70;99.90
8593;DHT22;4334;49.982;8.398;2024-02-16T09:14:20;13.20;99.90
8593;DHT22;4334;49.982;8.398;2024-02-16T09:16:50;13.50;99.90
8593;DHT22;4334;49.982;8.398;2024-02-16T09:19:17;13.60;99.90
8593;DHT22;4334;49.982;8.398;2024-02-16T09:21:45;13.60;99.90
8593;DHT22;4334;49.982;8.398;2024-02-16T09:24:11;13.60;99.90
8593;DHT22;4334;49.982;8.398;2024-02-16T09:26:43;13.50;99.90
8593;DHT22;4334;49.982;8.398;2024-02-16T09:29:11;13.50;99.90
8593;DHT22;4334;49.982;8.398;2024-02-16T09:31:38;13.40;99.90
8593;DHT22;4334;49.982;8.398;2024-02-16T09:34:06;13.50;99.90
8593;DHT22;4334;49.982;8.398;2024-02-16T09:36:33;13.40;99.90
8593;DHT22;4334;49.982;8.398;2024-02-16T09:39:01;13.50;99.90
8593;DHT22;4334;49.982;8.398;2024-02-16T09:41:28;13.50;99.90
8593;DHT22;4334;49.982;8.398;2024-02-16T09:43:55;13.40;99.90
8593;DHT22;4334;49.982;8.398;2024-02-16T09:46:22;13.50;99.90
8593;DHT22;4334;49.982;8.398;2024-02-16T09:48:49;13.60;99.90
8593;DHT22;4334;49.982;8.398;2024-02-16T09:51:19;13.60;99.90
8593;DHT22;4334;49.982;8.398;2024-02-16T09:53:50;13.70;99.90
8593;DHT22;4334;49.982;8.398;2024-02-16T09:56:19;14.10;99.90
8593;DHT22;4334;49.982;8.398;2024-02-16T09:58:45;13.70;99.90
8593;DHT22;4334;49.982;8.398;2024-02-16T10:01:17;13.60;99.90
8593;DHT22;4334;49.982;8.398;2024-02-16T10:03:45;13.70;99.90
8593;DHT22;4334;49.982;8.398;2024-02-16T10:06:13;13.80;99.90
8593;DHT22;4334;49.982;8.398;2024-02-16T10:08:49;13.70;99.90
8593;DHT22;4334;49.982;8.398;2024-02-16T10:11:16;13.70;99.90
8593;DHT22;4334;49.982;8.398;2024-02-16T10:13:54;13.70;99.90
8593;DHT22;4334;49.982;8.398;2024-02-16T10:16:21;13.70;99.90
8593;DHT22;4334;49.982;8.398;2024-02-16T10:18:48;13.80;99.90
8593;DHT22;4334;49.982;8.398;2024-02-16T10:21:24;13.80;99.90
8593;DHT22;4334;49.982;8.398;2024-02-16T10:23:59;13.80;99.90
8593;DHT22;4334;49.982;8.398;2024-02-16T10:26:27;13.90;99.90
8593;DHT22;4334;49.982;8.398;2024-02-16T10:28:56;14.10;99.90
8593;DHT22;4334;49.982;8.398;2024-02-16T10:31:24;14.10;99.90
8593;DHT22;4334;49.982;8.398;2024-02-16T10:33:56;15.90;99.90
8593;DHT22;4334;49.982;8.398;2024-02-16T10:36:25;14.10;99.90
8593;DHT22;4334;49.982;8.398;2024-02-16T10:38:54;14.10;99.90
8593;DHT22;4334;49.982;8.398;2024-02-16T10:41:26;14.00;99.90
8593;DHT22;4334;49.982;8.398;2024-02-16T10:43:55;14.10;99.90
8593;DHT22;4334;49.982;8.398;2024-02-16T10:46:22;16.80;99.90
8593;DHT22;4334;49.982;8.398;2024-02-16T10:48:49;14.40;99.90
8593;DHT22;4334;49.982;8.398;2024-02-16T10:51:19;14.30;99.90
8593;DHT22;4334;49.982;8.398;2024-02-16T10:53:46;14.20;99.90
8593;DHT22;4334;49.982;8.398;2024-02-16T10:56:14;14.20;99.90
8593;DHT22;4334;49.982;8.398;2024-02-16T10:58:42;14.20;99.90
8593;DHT22;4334;49.982;8.398;2024-02-16T11:01:09;14.20;99.90
8593;DHT22;4334;49.982;8.398;2024-02-16T11:03:38;14.20;99.90
8593;DHT22;4334;49.982;8.398;2024-02-16T11:06:14;14.30;99.90
8593;DHT22;4334;49.982;8.398;2024-02-16T11:08:42;14.40;99.90
8593;DHT22;4334;49.982;8.398;2024-02-16T11:11:08;14.50;99.90
8593;DHT22;4334;49.982;8.398;2024-02-16T11:13:37;14.60;99.90
8593;DHT22;4334;49.982;8.398;2024-02-16T11:16:09;14.70;99.90
8593;DHT22;4334;49.982;8.398;2024-02-16T11:18:41;14.90;99.90
8593;DHT22;4334;49.982;8.398;2024-02-16T11:21:12;14.90;99.90
8593;DHT22;4334;49.982;8.398;2024-02-16T11:23:40;15.00;99.90
8593;DHT22;4334;49.982;8.398;2024-02-16T11:26:10;17.90;99.90
8593;DHT22;4334;49.982;8.398;2024-02-16T11:28:39;15.20;99.90
8593;DHT22;4334;49.982;8.398;2024-02-16T11:31:08;15.30;99.90
8593;DHT22;4334;49.982;8.398;2024-02-16T11:33:34;15.30;99.90
8593;DHT22;4334;49.982;8.398;2024-02-16T11:36:04;15.20;99.90
8593;DHT22;4334;49.982;8.398;2024-02-16T11:38:31;15.00;99.90
8593;DHT22;4334;49.982;8.398;2024-02-16T11:40:59;15.00;99.90
8593;DHT22;4334;49.982;8.398;2024-02-16T11:43:26;15.00;99.90
8593;DHT22;4334;49.982;8.398;2024-02-16T11:45:53;15.10;99.90
8593;DHT22;4334;49.982;8.398;2024-02-16T11:48:22;15.00;99.90
8593;DHT22;4334;49.982;8.398;2024-02-16T11:50:57;15.00;99.90
8593;DHT22;4334;49.982;8.398;2024-02-16T11:53:24;15.20;99.90
8593;DHT22;4334;49.982;8.398;2024-02-16T11:55:51;15.30;99.90
8593;DHT22;4334;49.982;8.398;2024-02-16T11:58:18;15.20;99.90
8593;DHT22;4334;49.982;8.398;2024-02-16T12:00:45;15.20;99.90
8593;DHT22;4334;49.982;8.398;2024-02-16T12:03:18;15.20;99.90
8593;DHT22;4334;49.982;8.398;2024-02-16T12:05:51;15.40;99.90
8593;DHT22;4334;49.982;8.398;2024-02-16T12:08:18;15.50;99.90
8593;DHT22;4334;49.982;8.398;2024-02-16T12:10:46;15.70;99.90
8593;DHT22;4334;49.982;8.398;2024-02-16T12:13:13;15.90;99.90
8593;DHT22;4334;49.982;8.398;2024-02-16T12:15:41;18.50;99.90
8593;DHT22;4334;49.982;8.398;2024-02-16T12:18:07;15.90;99.90
8593;DHT22;4334;49.982;8.398;2024-02-16T12:20:34;16.10;99.90
8593;DHT22;4334;49.982;8.398;2024-02-16T12:23:12;16.20;99.90
8593;DHT22;4334;49.982;8.398;2024-02-16T12:25:38;16.40;99.90
8593;DHT22;4334;49.982;8.398;2024-02-16T12:28:05;16.60;99.90
8593;DHT22;4334;49.982;8.398;2024-02-16T12:30:33;16.70;99.90
8593;DHT22;4334;49.982;8.398;2024-02-16T12:33:00;16.70;99.90
8593;DHT22;4334;49.982;8.398;2024-02-16T12:35:26;17.40;99.90
8593;DHT22;4334;49.982;8.398;2024-02-16T12:37:53;19.00;99.90
8593;DHT22;4334;49.982;8.398;2024-02-16T12:40:21;20.60;99.90
8593;DHT22;4334;49.982;8.398;2024-02-16T12:42:47;21.40;99.90
8593;DHT22;4334;49.982;8.398;2024-02-16T12:45:14;21.70;99.90
8593;DHT22;4334;49.982;8.398;2024-02-16T12:47:41;21.70;99.90
8593;DHT22;4334;49.982;8.398;2024-02-16T12:50:08;21.80;99.90
8593;DHT22;4334;49.982;8.398;2024-02-16T12:52:35;21.60;99.90
8593;DHT22;4334;49.982;8.398;2024-02-16T12:55:05;20.70;99.90
8593;DHT22;4334;49.982;8.398;2024-02-16T12:57:33;19.50;99.90
8593;DHT22;4334;49.982;8.398;2024-02-16T13:00:00;18.80;99.90
8593;DHT22;4334;49.982;8.398;2024-02-16T13:02:27;18.50;99.90
8593;DHT22;4334;49.982;8.398;2024-02-16T13:04:54;18.30;99.90
8593;DHT22;4334;49.982;8.398;2024-02-16T13:07:21;18.10;99.90
8593;DHT22;4334;49.982;8.398;2024-02-16T13:09:48;17.80;99.90
8593;DHT22;4334;49.982;8.398;2024-02-16T13:12:16;17.70;99.90
8593;DHT22;4334;49.982;8.398;2024-02-16T13:14:44;17.70;99.90
8593;DHT22;4334;49.982;8.398;2024-02-16T13:17:11;17.70;99.90
8593;DHT22;4334;49.982;8.398;2024-02-16T13:19:38;17.90;99.90
8593;DHT22;4334;49.982;8.398;2024-02-16T13:22:04;17.60;99.90
8593;DHT22;4334;49.982;8.398;2024-02-16T13:24:31;17.80;99.90
8593;DHT22;4334;49.982;8.398;2024-02-16T13:26:59;20.10;99.90
8593;DHT22;4334;49.982;8.398;2024-02-16T13:29:26;17.90;99.90
8593;DHT22;4334;49.982;8.398;2024-02-16T13:31:54;17.80;99.90
8593;DHT22;4334;49.982;8.398;2024-02-16T13:34:21;17.70;99.90
8593;DHT22;4334;49.982;8.398;2024-02-16T13:36:47;20.30;99.90
8593;DHT22;4334;49.982;8.398;2024-02-16T13:39:14;17.80;99.90
8593;DHT22;4334;49.982;8.398;2024-02-16T13:41:41;17.70;99.90
8593;DHT22;4334;49.982;8.398;2024-02-16T13:44:09;17.60;99.90
8593;DHT22;4334;49.982;8.398;2024-02-16T13:46:36;17.50;99.90
8593;DHT22;4334;49.982;8.398;2024-02-16T13:49:04;17.50;99.90
8593;DHT22;4334;49.982;8.398;2024-02-16T13:51:30;17.50;99.90
8593;DHT22;4334;49.982;8.398;2024-02-16T13:53:57;17.50;99.90
8593;DHT22;4334;49.982;8.398;2024-02-16T13:56:24;17.50;99.90
8593;DHT22;4334;49.982;8.398;2024-02-16T13:58:50;17.50;99.90
8593;DHT22;4334;49.982;8.398;2024-02-16T14:01:17;17.50;99.90
8593;DHT22;4334;49.982;8.398;2024-02-16T14:03:44;17.60;99.90
8593;DHT22;4334;49.982;8.398;2024-02-16T14:06:12;20.20;99.90
8593;DHT22;4334;49.982;8.398;2024-02-16T14:08:39;17.30;99.90
8593;DHT22;4334;49.982;8.398;2024-02-16T14:11:05;17.30;99.90
8593;DHT22;4334;49.982;8.398;2024-02-16T14:13:34;17.40;99.90
8593;DHT22;4334;49.982;8.398;2024-02-16T14:16:01;17.40;99.90
8593;DHT22;4334;49.982;8.398;2024-02-16T14:18:27;17.40;99.90
8593;DHT22;4334;49.982;8.398;2024-02-16T14:20:54;17.40;99.90
8593;DHT22;4334;49.982;8.398;2024-02-16T14:23:22;17.60;99.90
8593;DHT22;4334;49.982;8.398;2024-02-16T14:25:49;17.20;99.90
8593;DHT22;4334;49.982;8.398;2024-02-16T14:28:16;17.10;99.90
8593;DHT22;4334;49.982;8.398;2024-02-16T14:30:42;16.90;99.90
8593;DHT22;4334;49.982;8.398;2024-02-16T14:33:09;16.80;99.90
8593;DHT22;4334;49.982;8.398;2024-02-16T14:35:36;16.70;99.90
8593;DHT22;4334;49.982;8.398;2024-02-16T14:38:03;16.70;99.90
8593;DHT22;4334;49.982;8.398;2024-02-16T14:40:31;16.60;99.90
8593;DHT22;4334;49.982;8.398;2024-02-16T14:42:59;16.50;99.90
8593;DHT22;4334;49.982;8.398;2024-02-16T14:45:25;16.30;99.90
8593;DHT22;4334;49.982;8.398;2024-02-16T14:47:52;16.30;99.90
8593;DHT22;4334;49.982;8.398;2024-02-16T14:50:19;16.20;99.90
8593;DHT22;4334;49.982;8.398;2024-02-16T14:52:45;16.10;99.90
8593;DHT22;4334;49.982;8.398;2024-02-16T14:55:12;16.00;99.90
8593;DHT22;4334;49.982;8.398;2024-02-16T14:57:41;15.90;99.90
8593;DHT22;4334;49.982;8.398;2024-02-16T15:00:09;15.90;99.90
8593;DHT22;4334;49.982;8.398;2024-02-16T15:02:37;15.80;99.90
8593;DHT22;4334;49.982;8.398;2024-02-16T15:05:04;15.80;99.90
8593;DHT22;4334;49.982;8.398;2024-02-16T15:07:31;15.80;99.90
8593;DHT22;4334;49.982;8.398;2024-02-16T15:09:58;15.70;99.90
8593;DHT22;4334;49.982;8.398;2024-02-16T15:12:25;15.80;99.90
8593;DHT22;4334;49.982;8.398;2024-02-16T15:14:54;15.80;99.90
8593;DHT22;4334;49.982;8.398;2024-02-16T15:17:21;15.70;99.90
8593;DHT22;4334;49.982;8.398;2024-02-16T15:19:47;15.70;99.90
8593;DHT22;4334;49.982;8.398;2024-02-16T15:22:14;15.60;99.90
8593;DHT22;4334;49.982;8.398;2024-02-16T15:24:41;15.70;99.90
8593;DHT22;4334;49.982;8.398;2024-02-16T15:27:08;18.50;99.90
8593;DHT22;4334;49.982;8.398;2024-02-16T15:29:35;15.60;99.90
8593;DHT22;4334;49.982;8.398;2024-02-16T15:32:04;15.60;99.90
8593;DHT22;4334;49.982;8.398;2024-02-16T15:34:31;15.60;99.90
8593;DHT22;4334;49.982;8.398;2024-02-16T15:36:57;15.50;99.90
8593;DHT22;4334;49.982;8.398;2024-02-16T15:39:24;15.50;99.90
8593;DHT22;4334;49.982;8.398;2024-02-16T15:41:52;15.50;99.90
8593;DHT22;4334;49.982;8.398;2024-02-16T15:44:19;15.50;99.90
8593;DHT22;4334;49.982;8.398;2024-02-16T15:46:46;15.40;99.90
8593;DHT22;4334;49.982;8.398;2024-02-16T15:49:14;15.40;99.90
8593;DHT22;4334;49.982;8.398;2024-02-16T15:51:40;15.40;99.90
8593;DHT22;4334;49.982;8.398;2024-02-16T15:54:07;15.30;99.90
8593;DHT22;4334;49.982;8.398;2024-02-16T15:56:34;16.20;99.90
8593;DHT22;4334;49.982;8.398;2024-02-16T15:59:00;17.60;99.90
8593;DHT22;4334;49.982;8.398;2024-02-16T16:01:28;15.10;99.90
8593;DHT22;4334;49.982;8.398;2024-02-16T16:03:57;15.10;99.90
8593;DHT22;4334;49.982;8.398;2024-02-16T16:06:25;15.00;99.90